Terminal Aerodrome Forecast
Issued by NWS

Home | Current Version | Previous Version | Text Only | Print | Product List | Glossary On
Versions: 1 2 3 4 5 6 7 8 9 10 11 12 13 14 15 16 17 18 19
800
FTUS42 KMLB 302338
TAFLEE
TAF
KLEE 302338Z 0100/0124 13015G22KT P6SM SCT040 SCT250
     FM010100 13012KT P6SM FEW030 SCT250
     FM010300 15010KT P6SM SCT020 SCT250 WS012/15030KT
      TEMPO 0108/0112 BKN020
     FM011300 17011KT P6SM SCT020 BKN250
     FM011500 17012KT P6SM SCT025 BKN250=

USA.gov is the U.S. government's official web portal to all federal, state and local government web resources and services.